Terminal Aerodrome Forecast
Issued by NWS Omaha/Valley, NE

Home | Current Version | Previous Version | Text Only | Print | Product List | Glossary On
Versions: 1 2 3 4 5 6 7 8 9 10 11 12 13 14 15 16 17 18 19 20 21 22 23 24 25 26 27 28 29 30 31 32 33 34 35 36 37 38 39 40 41 42 43 44 45 46
000
FTUS43 KOAX 040642 AAB
TAFOMA
TAF AMD
KOMA 040642Z 0407/0506 34012G22KT P6SM BKN060 BKN100
      TEMPO 0407/0409 6SM -SN BKN025
     FM040900 35009KT P6SM BKN060 BKN100
     FM041200 34006KT P6SM BKN150
     FM041800 32015G20KT P6SM SCT250
     FM050100 35007KT P6SM SKC=

USA.gov is the U.S. government's official web portal to all federal, state and local government web resources and services.